Time;durP1;ratioP1;P1;durP2;ratioP2;P2;SDS_P1;SDS_P2;PMS_P1;PMS_P2;Temp;Humidity;BMP_temperature;BMP_pressure;BME280_temperature;BME280_humidity;BME280_pressure;Samples;Min_cycle;Max_cycle;Signal;HPM_P1;HPM_P2
2022/05/11 00:00:16;;;;;;;;;;;;;;;;;;4825661;28;122382;-67
2022/05/11 00:02:43;;;;;;;;;;;;;;;;;;4828471;29;130434;-67
2022/05/11 00:05:09;;;;;;;;;;;;;;;;;;4829838;29;137261;-67
2022/05/11 00:07:35;;;;;;;;;;;;;;;;;;4829351;28;136374;-67
2022/05/11 00:10:02;;;;;;;;;;;;;;;;;;4830536;28;135685;-68
2022/05/11 00:12:28;;;;;;;;;;;;;;;;;;4821872;29;120272;-68
2022/05/11 00:14:54;;;;;;;;;;;;;;;;;;4826364;29;136073;-67
2022/05/11 00:17:20;;;;;;;;;;;;;;;;;;4831400;29;106241;-67
2022/05/11 00:19:47;;;;;;;;;;;;;;;;;;4860866;28;123369;-67
2022/05/11 00:22:13;;;;;;;;;;;;;;;;;;4853095;28;137207;-67
2022/05/11 00:24:39;;;;;;;;;;;;;;;;;;4829839;29;135662;-67
2022/05/11 00:27:06;;;;;;;;;;;;;;;;;;4826068;29;135423;-67
2022/05/11 00:29:33;;;;;;;;;;;;;;;;;;4831041;29;136170;-67
2022/05/11 00:31:59;;;;;;;;;;;;;;;;;;4826178;29;123471;-67
2022/05/11 00:34:26;;;;;;;;;;;;;;;;;;4828655;29;135358;-67
2022/05/11 00:36:52;;;;;;;;;;;;;;;;;;4824940;29;137100;-67
2022/05/11 00:39:18;;;;;;;;;;;;;;;;;;4830091;28;117317;-67
2022/05/11 00:41:46;;;;;;;;;;;;;;;;;;4822815;29;125914;-67
2022/05/11 00:44:12;;;;;;;;;;;;;;;;;;4838767;28;122231;-67
2022/05/11 00:46:44;;;;;;;;;;;;;;;;;;4831008;28;123004;-67
2022/05/11 00:51:55;;;;;;;;;;;;;;;;;;4823458;29;123838;-67
2022/05/11 00:54:22;;;;;;;;;;;;;;;;;;4827299;29;135153;-67
2022/05/11 00:56:48;;;;;;;;;;;;;;;;;;4830765;29;138243;-67
2022/05/11 00:59:14;;;;;;;;;;;;;;;;;;4824486;29;119820;-67
2022/05/11 01:01:40;;;;;;;;;;;;;;;;;;4823695;29;133746;-67
2022/05/11 01:04:07;;;;;;;;;;;;;;;;;;4825493;29;134201;-67
2022/05/11 01:06:33;;;;;;;;;;;;;;;;;;4824044;28;124430;-67
2022/05/11 01:09:00;;;;;;;;;;;;;;;;;;4832963;28;106568;-67
2022/05/11 01:11:26;;;;;;;;;;;;;;;;;;4831840;28;123003;-67
2022/05/11 01:13:52;;;;;;;;;;;;;;;;;;4823770;29;137227;-67
2022/05/11 01:16:18;;;;;;;;;;;;;;;;;;4830800;29;122421;-67
2022/05/11 01:18:45;;;;;;;;;;;;;;;;;;4829768;28;122853;-67
2022/05/11 01:21:11;;;;;;;;;;;;;;;;;;4829489;29;137133;-67
2022/05/11 01:23:37;;;;;;;;;;;;;;;;;;4830268;28;111917;-67
2022/05/11 01:26:04;;;;;;;;;;;;;;;;;;4825961;28;122831;-67
2022/05/11 01:28:30;;;;;;;;;;;;;;;;;;4825360;29;136591;-67
2022/05/11 01:30:57;;;;;;;;;;;;;;;;;;4830553;28;137163;-67
2022/05/11 01:33:23;;;;;;;;;;;;;;;;;;4825784;28;126013;-67
2022/05/11 01:35:50;;;;;;;;;;;;;;;;;;4828942;29;135763;-67
2022/05/11 01:38:16;;;;;;;;;;;;;;;;;;4829295;28;121962;-67
2022/05/11 01:40:42;;;;;;;;;;;;;;;;;;4828383;29;137820;-67
2022/05/11 01:43:09;;;;;;;;;;;;;;;;;;4831912;28;107028;-67
2022/05/11 01:45:35;;;;;;;;;;;;;;;;;;4825066;29;123818;-67
2022/05/11 01:48:01;;;;;;;;;;;;;;;;;;4823246;29;132118;-67
2022/05/11 01:50:28;;;;;;;;;;;;;;;;;;4825607;29;123185;-67
2022/05/11 01:52:54;;;;;;;;;;;;;;;;;;4830102;29;123484;-67
2022/05/11 01:55:20;;;;;;;;;;;;;;;;;;4829651;28;135629;-67
2022/05/11 01:57:47;;;;;;;;;;;;;;;;;;4844044;28;121948;-67
2022/05/11 02:00:13;;;;;;;;;;;;;;;;;;4830292;29;135213;-67
2022/05/11 02:02:39;;;;;;;;;;;;;;;;;;4817945;29;137333;-66
2022/05/11 02:07:51;;;;;;;;;;;;;;;;;;4820124;29;136993;-66
2022/05/11 02:10:17;;;;;;;;;;;;;;;;;;4833709;29;136420;-66
2022/05/11 02:12:44;;;;;;;;;;;;;;;;;;4846752;28;114499;-66
2022/05/11 02:15:10;;;;;;;;;;;;;;;;;;4832032;29;136430;-66
2022/05/11 02:17:37;;;;;;;;;;;;;;;;;;4831963;28;121932;-66
2022/05/11 02:20:03;;;;;;;;;;;;;;;;;;4831863;28;126828;-66
2022/05/11 02:22:29;;;;;;;;;;;;;;;;;;4856328;28;138014;-67
2022/05/11 02:24:55;;;;;;;;;;;;;;;;;;4832344;29;123067;-67
2022/05/11 02:27:22;;;;;;;;;;;;;;;;;;4827053;28;124314;-66
2022/05/11 02:29:48;;;;;;;;;;;;;;;;;;4841165;28;111045;-66
2022/05/11 02:32:14;;;;;;;;;;;;;;;;;;4871145;28;105714;-66
2022/05/11 02:37:25;;;;;;;;;;;;;;;;;;4820238;29;122352;-68
2022/05/11 02:39:52;;;;;;;;;;;;;;;;;;4827445;29;137196;-66
2022/05/11 02:42:18;;;;;;;;;;;;;;;;;;4831975;29;138566;-66
2022/05/11 02:44:45;;;;;;;;;;;;;;;;;;4824006;28;124816;-66
2022/05/11 02:47:11;;;;;;;;;;;;;;;;;;4828709;29;135121;-66
2022/05/11 02:49:38;;;;;;;;;;;;;;;;;;4832448;29;126479;-66
2022/05/11 02:52:04;;;;;;;;;;;;;;;;;;4839338;28;122059;-68
2022/05/11 02:54:30;;;;;;;;;;;;;;;;;;4827946;28;136363;-68
2022/05/11 02:56:57;;;;;;;;;;;;;;;;;;4835205;28;128581;-68
2022/05/11 02:59:23;;;;;;;;;;;;;;;;;;4850409;28;130630;-68
2022/05/11 03:01:51;;;;;;;;;;;;;;;;;;4827552;28;134290;-68
2022/05/11 03:04:18;;;;;;;;;;;;;;;;;;4831525;28;121711;-68
2022/05/11 03:06:47;;;;;;;;;;;;;;;;;;4828361;28;135120;-68
2022/05/11 03:09:14;;;;;;;;;;;;;;;;;;4829546;29;137113;-68
2022/05/11 03:11:40;;;;;;;;;;;;;;;;;;4831304;29;106342;-68
2022/05/11 03:14:07;;;;;;;;;;;;;;;;;;4831098;28;136450;-69
2022/05/11 03:16:33;;;;;;;;;;;;;;;;;;4827888;29;135416;-68
2022/05/11 03:19:01;;;;;;;;;;;;;;;;;;4833335;28;113159;-68
2022/05/11 03:21:28;;;;;;;;;;;;;;;;;;4828396;29;136985;-68
2022/05/11 03:23:54;;;;;;;;;;;;;;;;;;4829370;29;109911;-68
2022/05/11 03:26:20;;;;;;;;;;;;;;;;;;4842723;28;135589;-68
2022/05/11 03:28:47;;;;;;;;;;;;;;;;;;4835270;28;137173;-68
2022/05/11 03:31:13;;;;;;;;;;;;;;;;;;4831351;28;121972;-69
2022/05/11 03:36:24;;;;;;;;;;;;;;;;;;4833241;28;107688;-66
2022/05/11 03:38:50;;;;;;;;;;;;;;;;;;4830781;29;123834;-68
2022/05/11 03:41:17;;;;;;;;;;;;;;;;;;4836192;29;135633;-68
2022/05/11 03:43:43;;;;;;;;;;;;;;;;;;4830205;29;112700;-68
2022/05/11 03:46:13;;;;;;;;;;;;;;;;;;4826935;29;114064;-68
2022/05/11 03:48:39;;;;;;;;;;;;;;;;;;4826395;28;137012;-69
2022/05/11 03:51:05;;;;;;;;;;;;;;;;;;4869257;28;121956;-69
2022/05/11 03:53:32;;;;;;;;;;;;;;;;;;4827839;28;136445;-68
2022/05/11 03:55:58;;;;;;;;;;;;;;;;;;4831440;28;123572;-68
2022/05/11 03:58:24;;;;;;;;;;;;;;;;;;4846519;28;124237;-68
2022/05/11 04:00:52;;;;;;;;;;;;;;;;;;4820282;29;137663;-68
2022/05/11 04:03:18;;;;;;;;;;;;;;;;;;4830072;28;107902;-68
2022/05/11 04:05:45;;;;;;;;;;;;;;;;;;4826261;28;136884;-68
2022/05/11 04:08:11;;;;;;;;;;;;;;;;;;4829151;29;136577;-68
2022/05/11 04:10:37;;;;;;;;;;;;;;;;;;4832239;29;122575;-68
2022/05/11 04:13:04;;;;;;;;;;;;;;;;;;4823206;29;136949;-68
2022/05/11 04:15:30;;;;;;;;;;;;;;;;;;4829683;29;136665;-68
2022/05/11 04:17:56;;;;;;;;;;;;;;;;;;4830366;28;123312;-68
2022/05/11 04:20:23;;;;;;;;;;;;;;;;;;4824857;28;135264;-68
2022/05/11 04:22:50;;;;;;;;;;;;;;;;;;4824448;29;135741;-69
2022/05/11 04:25:17;;;;;;;;;;;;;;;;;;4830430;29;121840;-69
2022/05/11 04:27:43;;;;;;;;;;;;;;;;;;4822067;29;137128;-69
2022/05/11 04:30:09;;;;;;;;;;;;;;;;;;4827402;29;122076;-68
2022/05/11 04:32:35;;;;;;;;;;;;;;;;;;4830971;29;125952;-68
2022/05/11 04:35:02;;;;;;;;;;;;;;;;;;4828924;28;135719;-68
2022/05/11 04:37:28;;;;;;;;;;;;;;;;;;4840394;28;124625;-69
2022/05/11 04:39:55;;;;;;;;;;;;;;;;;;4823346;28;137224;-68
2022/05/11 04:42:21;;;;;;;;;;;;;;;;;;4834180;28;137777;-69
2022/05/11 04:44:48;;;;;;;;;;;;;;;;;;4832396;28;123404;-68
2022/05/11 04:47:14;;;;;;;;;;;;;;;;;;4829053;29;138174;-68
2022/05/11 04:49:40;;;;;;;;;;;;;;;;;;4829266;29;123115;-68
2022/05/11 04:52:10;;;;;;;;;;;;;;;;;;4826760;28;118739;-69
2022/05/11 04:54:36;;;;;;;;;;;;;;;;;;4837609;28;135643;-68
2022/05/11 04:57:02;;;;;;;;;;;;;;;;;;4828056;29;117498;-67
2022/05/11 04:59:29;;;;;;;;;;;;;;;;;;4827945;29;107309;-67
2022/05/11 05:01:57;;;;;;;;;;;;;;;;;;4829434;29;112149;-67
2022/05/11 05:04:23;;;;;;;;;;;;;;;;;;4830818;29;119954;-67
2022/05/11 05:06:50;;;;;;;;;;;;;;;;;;4831129;29;134489;-67
2022/05/11 05:09:16;;;;;;;;;;;;;;;;;;4822935;28;121892;-67
2022/05/11 05:11:42;;;;;;;;;;;;;;;;;;4819237;29;135147;-68
2022/05/11 05:14:09;;;;;;;;;;;;;;;;;;4818269;28;137988;-67
2022/05/11 05:16:35;;;;;;;;;;;;;;;;;;4840741;28;123955;-67
2022/05/11 05:19:01;;;;;;;;;;;;;;;;;;4821542;28;137991;-67
2022/05/11 05:21:27;;;;;;;;;;;;;;;;;;4824644;29;137161;-69
2022/05/11 05:23:54;;;;;;;;;;;;;;;;;;4823481;29;122017;-67
2022/05/11 05:26:20;;;;;;;;;;;;;;;;;;4830241;29;133793;-67
2022/05/11 05:31:32;;;;;;;;;;;;;;;;;;4828430;29;132357;-67
2022/05/11 05:33:59;;;;;;;;;;;;;;;;;;4829013;28;134949;-67
2022/05/11 05:36:26;;;;;;;;;;;;;;;;;;4820896;29;116788;-67
2022/05/11 05:38:52;;;;;;;;;;;;;;;;;;4828098;29;135907;-67
2022/05/11 05:41:19;;;;;;;;;;;;;;;;;;4829079;29;123281;-67
2022/05/11 05:43:45;;;;;;;;;;;;;;;;;;4823935;29;123150;-67
2022/05/11 05:46:11;;;;;;;;;;;;;;;;;;4829600;28;106851;-67
2022/05/11 05:48:38;;;;;;;;;;;;;;;;;;4822676;29;136916;-67
2022/05/11 05:51:04;;;;;;;;;;;;;;;;;;4834296;29;120881;-69
2022/05/11 05:53:30;;;;;;;;;;;;;;;;;;4826868;29;127167;-68
2022/05/11 05:55:57;;;;;;;;;;;;;;;;;;4833975;29;122052;-67
2022/05/11 05:58:23;;;;;;;;;;;;;;;;;;4823331;28;136143;-67
2022/05/11 06:00:49;;;;;;;;;;;;;;;;;;4832208;29;132310;-67
2022/05/11 06:03:15;;;;;;;;;;;;;;;;;;4823769;28;123394;-67
2022/05/11 06:05:42;;;;;;;;;;;;;;;;;;4831085;28;136602;-68
2022/05/11 06:08:08;;;;;;;;;;;;;;;;;;4820785;29;119042;-68
2022/05/11 06:10:39;;;;;;;;;;;;;;;;;;4820716;28;121771;-68
2022/05/11 06:13:05;;;;;;;;;;;;;;;;;;4833210;29;137271;-67
2022/05/11 06:15:32;;;;;;;;;;;;;;;;;;4827337;29;121570;-67
2022/05/11 06:17:58;;;;;;;;;;;;;;;;;;4830107;28;106974;-67
2022/05/11 06:20:25;;;;;;;;;;;;;;;;;;4834668;28;137813;-67
2022/05/11 06:22:53;;;;;;;;;;;;;;;;;;4832220;28;123469;-68
2022/05/11 06:25:20;;;;;;;;;;;;;;;;;;4840544;28;113466;-67
2022/05/11 06:27:46;;;;;;;;;;;;;;;;;;4832004;28;107462;-67
2022/05/11 06:30:12;;;;;;;;;;;;;;;;;;4834086;28;122594;-67
2022/05/11 06:32:38;;;;;;;;;;;;;;;;;;4852347;28;136338;-67
2022/05/11 06:35:05;;;;;;;;;;;;;;;;;;4838467;28;106414;-68
2022/05/11 06:37:31;;;;;;;;;;;;;;;;;;4841451;28;136594;-68
2022/05/11 06:39:58;;;;;;;;;;;;;;;;;;4837530;28;133697;-68
2022/05/11 06:42:24;;;;;;;;;;;;;;;;;;4842567;28;112771;-68
2022/05/11 06:44:50;;;;;;;;;;;;;;;;;;4825006;28;127303;-67
2022/05/11 06:47:17;;;;;;;;;;;;;;;;;;4831624;28;137013;-67
2022/05/11 06:49:43;;;;;;;;;;;;;;;;;;4833766;28;126201;-67
2022/05/11 06:52:10;;;;;;;;;;;;;;;;;;4830327;29;112526;-70
2022/05/11 07:00:11;;;;;;;;;;;;;;;;;;4827910;28;136376;-67
2022/05/11 07:02:37;;;;;;;;;;;;;;;;;;4825116;28;122006;-67
2022/05/11 07:05:04;;;;;;;;;;;;;;;;;;4835557;28;132214;-71
2022/05/11 07:07:30;;;;;;;;;;;;;;;;;;4825548;28;136051;-67
2022/05/11 07:09:56;;;;;;;;;;;;;;;;;;4841158;28;122602;-73
2022/05/11 07:12:32;;;;;;;;;;;;;;;;;;4839740;28;135190;-68
2022/05/11 07:14:59;;;;;;;;;;;;;;;;;;4834624;28;138184;-67
2022/05/11 07:17:26;;;;;;;;;;;;;;;;;;4863560;28;121057;-68
2022/05/11 07:19:53;;;;;;;;;;;;;;;;;;4831858;28;137045;-68
2022/05/11 07:22:19;;;;;;;;;;;;;;;;;;4848679;28;121850;-68
2022/05/11 07:24:46;;;;;;;;;;;;;;;;;;4839798;28;135165;-67
2022/05/11 07:27:12;;;;;;;;;;;;;;;;;;4830260;29;136193;-68
2022/05/11 07:29:38;;;;;;;;;;;;;;;;;;4829424;29;120572;-67
2022/05/11 07:32:06;;;;;;;;;;;;;;;;;;4847195;28;134523;-68
2022/05/11 07:34:33;;;;;;;;;;;;;;;;;;4836471;28;135764;-68
2022/05/11 07:36:59;;;;;;;;;;;;;;;;;;4843967;28;121786;-67
2022/05/11 07:39:26;;;;;;;;;;;;;;;;;;4897808;28;137222;-68
2022/05/11 07:41:54;;;;;;;;;;;;;;;;;;4864302;28;105653;-68
2022/05/11 07:44:21;;;;;;;;;;;;;;;;;;4827424;28;133954;-67
2022/05/11 07:46:47;;;;;;;;;;;;;;;;;;4821089;29;137103;-68
2022/05/11 07:49:13;;;;;;;;;;;;;;;;;;4823511;28;105708;-68
2022/05/11 07:51:41;;;;;;;;;;;;;;;;;;4834780;28;136009;-68
2022/05/11 07:54:07;;;;;;;;;;;;;;;;;;4831237;28;138353;-67
2022/05/11 08:02:03;;;;;;;;;;;;;;;;;;4881659;28;137113;-66
2022/05/11 08:04:30;;;;;;;;;;;;;;;;;;4836294;28;117443;-67
2022/05/11 08:06:56;;;;;;;;;;;;;;;;;;4827821;28;137804;-66
2022/05/11 08:09:22;;;;;;;;;;;;;;;;;;4828625;29;122420;-67
2022/05/11 08:11:50;;;;;;;;;;;;;;;;;;4826293;28;123306;-67
2022/05/11 08:14:17;;;;;;;;;;;;;;;;;;4826831;28;122746;-67
2022/05/11 08:16:43;;;;;;;;;;;;;;;;;;4822405;28;122565;-66
2022/05/11 08:19:10;;;;;;;;;;;;;;;;;;4837288;28;110038;-67
2022/05/11 08:21:36;;;;;;;;;;;;;;;;;;4835721;28;136609;-67
2022/05/11 08:24:03;;;;;;;;;;;;;;;;;;4831982;28;123263;-67
2022/05/11 08:26:29;;;;;;;;;;;;;;;;;;4827543;28;137185;-67
2022/05/11 08:28:55;;;;;;;;;;;;;;;;;;4840051;28;106758;-66
2022/05/11 08:34:07;;;;;;;;;;;;;;;;;;4824919;28;135637;-66
2022/05/11 08:36:36;;;;;;;;;;;;;;;;;;4841620;28;113133;-66
2022/05/11 08:39:04;;;;;;;;;;;;;;;;;;4831079;28;133941;-65
2022/05/11 08:41:30;;;;;;;;;;;;;;;;;;4829359;28;138152;-66
2022/05/11 08:43:57;;;;;;;;;;;;;;;;;;4834297;28;105899;-66
2022/05/11 08:46:24;;;;;;;;;;;;;;;;;;4819410;28;137190;-67
2022/05/11 08:48:51;;;;;;;;;;;;;;;;;;4823052;28;123976;-67
2022/05/11 08:51:17;;;;;;;;;;;;;;;;;;4829191;28;116367;-67
2022/05/11 08:53:45;;;;;;;;;;;;;;;;;;4821266;28;126932;-67
2022/05/11 08:56:12;;;;;;;;;;;;;;;;;;4827844;28;123303;-67
2022/05/11 08:58:39;;;;;;;;;;;;;;;;;;4839799;28;136656;-74
2022/05/11 09:01:07;;;;;;;;;;;;;;;;;;4848024;28;137227;-71
2022/05/11 09:03:34;;;;;;;;;;;;;;;;;;4823203;28;123382;-71
2022/05/11 09:06:00;;;;;;;;;;;;;;;;;;4829834;29;137343;-69
2022/05/11 09:08:26;;;;;;;;;;;;;;;;;;4829583;28;123313;-69
2022/05/11 09:10:53;;;;;;;;;;;;;;;;;;4827736;29;136565;-69
2022/05/11 09:13:20;;;;;;;;;;;;;;;;;;4829092;29;137804;-71
2022/05/11 09:15:46;;;;;;;;;;;;;;;;;;4823512;28;118726;-71
2022/05/11 09:18:13;;;;;;;;;;;;;;;;;;4821791;28;123794;-69
2022/05/11 09:20:39;;;;;;;;;;;;;;;;;;4833381;28;107661;-69
2022/05/11 09:23:07;;;;;;;;;;;;;;;;;;4849674;28;123158;-70
2022/05/11 09:25:33;;;;;;;;;;;;;;;;;;4829437;28;136788;-70
2022/05/11 09:27:59;;;;;;;;;;;;;;;;;;4834359;29;135892;-71
2022/05/11 09:30:25;;;;;;;;;;;;;;;;;;4823621;29;136651;-72
2022/05/11 09:32:53;;;;;;;;;;;;;;;;;;4824974;29;137672;-70
2022/05/11 09:35:20;;;;;;;;;;;;;;;;;;4841790;28;107425;-70
2022/05/11 09:37:46;;;;;;;;;;;;;;;;;;4823702;28;136572;-70
2022/05/11 09:40:13;;;;;;;;;;;;;;;;;;4835392;28;130953;-70
2022/05/11 09:42:39;;;;;;;;;;;;;;;;;;4820597;29;124285;-71
2022/05/11 09:45:05;;;;;;;;;;;;;;;;;;4821217;28;136896;-70
2022/05/11 09:47:32;;;;;;;;;;;;;;;;;;4831410;28;135591;-67
2022/05/11 09:49:58;;;;;;;;;;;;;;;;;;4832646;29;121640;-67
2022/05/11 09:52:25;;;;;;;;;;;;;;;;;;4826348;28;135701;-68
2022/05/11 09:54:51;;;;;;;;;;;;;;;;;;4829129;28;119774;-71
2022/05/11 09:57:18;;;;;;;;;;;;;;;;;;4837461;28;130626;-70
2022/05/11 09:59:45;;;;;;;;;;;;;;;;;;4820009;28;137103;-67
2022/05/11 10:02:11;;;;;;;;;;;;;;;;;;4828164;28;106399;-69
2022/05/11 10:04:37;;;;;;;;;;;;;;;;;;4826208;28;136981;-68
2022/05/11 10:07:04;;;;;;;;;;;;;;;;;;4829525;29;135698;-68
2022/05/11 10:09:30;;;;;;;;;;;;;;;;;;4820997;29;109111;-69
2022/05/11 10:12:02;;;;;;;;;;;;;;;;;;4834340;29;135345;-68
2022/05/11 10:23:03;;;;;;;;;;;;;;;;;;4819835;28;123165;-70
2022/05/11 10:25:29;;;;;;;;;;;;;;;;;;4832179;28;135344;-71
2022/05/11 10:27:56;;;;;;;;;;;;;;;;;;4827844;28;139318;-71
2022/05/11 10:30:24;;;;;;;;;;;;;;;;;;4845758;28;106706;-70
2022/05/11 10:32:50;;;;;;;;;;;;;;;;;;4833736;28;136173;-71
2022/05/11 10:35:16;;;;;;;;;;;;;;;;;;4839809;28;109132;-70
2022/05/11 10:37:43;;;;;;;;;;;;;;;;;;4828991;28;136652;-70
2022/05/11 10:40:09;;;;;;;;;;;;;;;;;;4826571;28;123982;-70
2022/05/11 10:42:36;;;;;;;;;;;;;;;;;;4831037;28;106830;-70
2022/05/11 10:45:02;;;;;;;;;;;;;;;;;;4836580;28;109620;-69
2022/05/11 10:47:28;;;;;;;;;;;;;;;;;;4833426;28;117687;-70
2022/05/11 10:49:55;;;;;;;;;;;;;;;;;;4835799;28;107460;-69
2022/05/11 10:52:21;;;;;;;;;;;;;;;;;;4839807;28;135460;-70
2022/05/11 10:54:47;;;;;;;;;;;;;;;;;;4838032;28;137121;-69
2022/05/11 10:57:14;;;;;;;;;;;;;;;;;;4832341;28;136749;-69
2022/05/11 10:59:40;;;;;;;;;;;;;;;;;;4832378;28;138391;-70
2022/05/11 11:02:06;;;;;;;;;;;;;;;;;;4823625;28;117373;-69
2022/05/11 11:04:33;;;;;;;;;;;;;;;;;;4839527;28;111182;-69
2022/05/11 11:07:11;;;;;;;;;;;;;;;;;;4827060;28;133814;-69
2022/05/11 11:09:37;;;;;;;;;;;;;;;;;;4841720;28;123587;-69
2022/05/11 11:12:03;;;;;;;;;;;;;;;;;;4832343;28;135566;-69
2022/05/11 11:14:30;;;;;;;;;;;;;;;;;;4836837;28;107701;-70
2022/05/11 11:17:04;;;;;;;;;;;;;;;;;;4828325;28;122147;-68
2022/05/11 11:19:31;;;;;;;;;;;;;;;;;;4838079;28;137310;-67
2022/05/11 11:22:00;;;;;;;;;;;;;;;;;;4830510;29;106609;-68
2022/05/11 11:24:27;;;;;;;;;;;;;;;;;;4829173;28;131482;-67
2022/05/11 11:26:53;;;;;;;;;;;;;;;;;;4830142;28;134526;-67
2022/05/11 11:29:20;;;;;;;;;;;;;;;;;;4826511;28;122183;-67
2022/05/11 11:31:46;;;;;;;;;;;;;;;;;;4831549;28;121225;-67
2022/05/11 11:34:12;;;;;;;;;;;;;;;;;;4826791;28;136511;-67
2022/05/11 11:36:40;;;;;;;;;;;;;;;;;;4835805;28;123535;-67
2022/05/11 11:39:06;;;;;;;;;;;;;;;;;;4831755;28;123596;-67
2022/05/11 11:41:33;;;;;;;;;;;;;;;;;;4823733;28;107652;-67
2022/05/11 11:43:59;;;;;;;;;;;;;;;;;;4828125;28;139327;-67
2022/05/11 11:46:25;;;;;;;;;;;;;;;;;;4823391;28;125829;-67
2022/05/11 11:48:51;;;;;;;;;;;;;;;;;;4829329;28;122196;-67
2022/05/11 11:51:18;;;;;;;;;;;;;;;;;;4830628;28;134517;-68
2022/05/11 11:53:44;;;;;;;;;;;;;;;;;;4829015;28;138249;-68
2022/05/11 11:56:10;;;;;;;;;;;;;;;;;;4827211;28;124100;-67
2022/05/11 11:58:37;;;;;;;;;;;;;;;;;;4827979;28;137735;-69
2022/05/11 12:01:03;;;;;;;;;;;;;;;;;;4835574;28;137447;-66
2022/05/11 12:03:29;;;;;;;;;;;;;;;;;;4822691;28;135231;-67
2022/05/11 12:15:01;;;;;;;;;;;;;;;;;;4826795;28;126181;-70
2022/05/11 12:16:57;;;;;;;;;;;;;;;;;;4856233;28;119745;-69
2022/05/11 12:19:24;;;;;;;;;;;;;;;;;;4829315;28;136476;-69
2022/05/11 12:21:51;;;;;;;;;;;;;;;;;;4834368;28;132825;-69
2022/05/11 12:24:17;;;;;;;;;;;;;;;;;;4836927;28;122293;-69
2022/05/11 12:26:43;;;;;;;;;;;;;;;;;;4825846;28;138676;-69
2022/05/11 12:31:54;;;;;;;;;;;;;;;;;;4830134;28;135602;-69
2022/05/11 12:34:21;;;;;;;;;;;;;;;;;;4829104;28;107602;-68
2022/05/11 12:36:49;;;;;;;;;;;;;;;;;;4819489;28;127105;-69
2022/05/11 12:39:15;;;;;;;;;;;;;;;;;;4827912;28;117006;-68
2022/05/11 12:41:42;;;;;;;;;;;;;;;;;;4823592;28;138228;-68
2022/05/11 12:44:12;;;;;;;;;;;;;;;;;;4830299;28;114693;-68
2022/05/11 12:46:39;;;;;;;;;;;;;;;;;;4828806;28;136602;-69
2022/05/11 12:49:05;;;;;;;;;;;;;;;;;;4825767;28;123502;-69
2022/05/11 12:51:31;;;;;;;;;;;;;;;;;;4829661;28;106627;-68
2022/05/11 12:53:58;;;;;;;;;;;;;;;;;;4824104;28;136237;-68
2022/05/11 12:56:25;;;;;;;;;;;;;;;;;;4820624;28;123225;-68
2022/05/11 12:58:51;;;;;;;;;;;;;;;;;;4823294;28;137346;-67
2022/05/11 13:01:17;;;;;;;;;;;;;;;;;;4819837;28;132956;-67
2022/05/11 13:03:44;;;;;;;;;;;;;;;;;;4825186;28;111843;-70
2022/05/11 13:06:10;;;;;;;;;;;;;;;;;;4823972;28;107685;-67
2022/05/11 13:08:36;;;;;;;;;;;;;;;;;;4818538;28;108611;-68
2022/05/11 13:11:07;;;;;;;;;;;;;;;;;;4825363;28;135946;-68
2022/05/11 13:13:35;;;;;;;;;;;;;;;;;;4828437;28;136564;-67
2022/05/11 13:16:01;;;;;;;;;;;;;;;;;;4833615;28;124589;-69
2022/05/11 13:18:27;;;;;;;;;;;;;;;;;;4824455;28;130743;-68
2022/05/11 13:20:53;;;;;;;;;;;;;;;;;;4831996;28;136241;-68
2022/05/11 13:23:20;;;;;;;;;;;;;;;;;;4830080;28;124667;-68
2022/05/11 13:25:46;;;;;;;;;;;;;;;;;;4833407;28;136288;-68
2022/05/11 13:28:12;;;;;;;;;;;;;;;;;;4834046;28;136400;-68
2022/05/11 13:30:44;;;;;;;;;;;;;;;;;;4832373;28;138767;-69
2022/05/11 13:33:10;;;;;;;;;;;;;;;;;;4846103;28;138148;-68
2022/05/11 13:35:37;;;;;;;;;;;;;;;;;;4836039;28;122430;-69
2022/05/11 13:38:03;;;;;;;;;;;;;;;;;;4830634;28;136225;-70
2022/05/11 13:40:29;;;;;;;;;;;;;;;;;;4822557;28;130598;-73
2022/05/11 13:42:56;;;;;;;;;;;;;;;;;;4828213;28;108831;-71
2022/05/11 13:45:22;;;;;;;;;;;;;;;;;;4824138;29;132112;-71
2022/05/11 13:50:34;;;;;;;;;;;;;;;;;;4841089;28;119208;-69
2022/05/11 13:53:00;;;;;;;;;;;;;;;;;;4834271;28;130601;-69
2022/05/11 13:55:26;;;;;;;;;;;;;;;;;;4827758;28;124086;-69
2022/05/11 13:57:52;;;;;;;;;;;;;;;;;;4826088;28;138303;-67
2022/05/11 14:00:19;;;;;;;;;;;;;;;;;;4826887;28;138614;-70
2022/05/11 14:02:45;;;;;;;;;;;;;;;;;;4821158;28;108971;-70
2022/05/11 14:05:12;;;;;;;;;;;;;;;;;;4825691;28;135925;-68
2022/05/11 14:07:39;;;;;;;;;;;;;;;;;;4827373;28;136060;-70
2022/05/11 14:10:05;;;;;;;;;;;;;;;;;;4825388;28;107385;-71
2022/05/11 14:12:32;;;;;;;;;;;;;;;;;;4838084;28;135868;-68
2022/05/11 14:14:59;;;;;;;;;;;;;;;;;;4829580;28;124868;-68
2022/05/11 14:17:25;;;;;;;;;;;;;;;;;;4825383;28;133278;-67
2022/05/11 14:19:51;;;;;;;;;;;;;;;;;;4830380;28;138024;-75
2022/05/11 14:22:18;;;;;;;;;;;;;;;;;;4866074;28;123277;-70
2022/05/11 14:24:44;;;;;;;;;;;;;;;;;;4825812;28;136254;-73
2022/05/11 14:27:10;;;;;;;;;;;;;;;;;;4830804;28;136076;-71
2022/05/11 14:29:37;;;;;;;;;;;;;;;;;;4831919;28;123826;-72
2022/05/11 14:32:03;;;;;;;;;;;;;;;;;;4830160;28;134497;-72
2022/05/11 14:34:29;;;;;;;;;;;;;;;;;;4829147;28;106585;-72
2022/05/11 14:36:56;;;;;;;;;;;;;;;;;;4830657;28;134375;-69
2022/05/11 14:39:24;;;;;;;;;;;;;;;;;;4826272;28;137634;-70
2022/05/11 14:41:51;;;;;;;;;;;;;;;;;;4827704;28;123976;-71
2022/05/11 14:44:18;;;;;;;;;;;;;;;;;;4826592;28;107138;-71
2022/05/11 14:46:48;;;;;;;;;;;;;;;;;;4860573;28;137034;-71
2022/05/11 14:49:14;;;;;;;;;;;;;;;;;;4819330;28;122222;-70
2022/05/11 14:51:41;;;;;;;;;;;;;;;;;;4829930;28;135333;-70
2022/05/11 14:54:07;;;;;;;;;;;;;;;;;;4825071;28;137816;-71
2022/05/11 14:56:34;;;;;;;;;;;;;;;;;;4834298;28;121279;-70
2022/05/11 15:01:56;;;;;;;;;;;;;;;;;;4818025;28;123967;-71
2022/05/11 15:04:22;;;;;;;;;;;;;;;;;;4822540;28;135947;-71
2022/05/11 15:06:48;;;;;;;;;;;;;;;;;;4828833;28;123786;-71
2022/05/11 15:09:14;;;;;;;;;;;;;;;;;;4828548;28;123592;-71
2022/05/11 15:14:30;;;;;;;;;;;;;;;;;;4824628;28;136291;-71
2022/05/11 15:16:57;;;;;;;;;;;;;;;;;;4823808;28;122675;-69
2022/05/11 15:19:23;;;;;;;;;;;;;;;;;;4855101;28;138037;-72
2022/05/11 15:21:49;;;;;;;;;;;;;;;;;;4822452;28;106864;-68
2022/05/11 15:24:16;;;;;;;;;;;;;;;;;;4822821;28;136553;-70
2022/05/11 15:26:42;;;;;;;;;;;;;;;;;;4827922;28;137576;-70
2022/05/11 15:29:08;;;;;;;;;;;;;;;;;;4829352;28;126028;-69
2022/05/11 15:31:35;;;;;;;;;;;;;;;;;;4821197;28;136867;-69
2022/05/11 15:34:03;;;;;;;;;;;;;;;;;;4818487;28;128215;-70
2022/05/11 15:36:29;;;;;;;;;;;;;;;;;;4827940;28;124773;-70
2022/05/11 15:38:55;;;;;;;;;;;;;;;;;;4832287;28;132118;-73
2022/05/11 15:41:21;;;;;;;;;;;;;;;;;;4824276;28;115808;-71
2022/05/11 15:43:48;;;;;;;;;;;;;;;;;;4820785;28;135975;-72
2022/05/11 15:46:14;;;;;;;;;;;;;;;;;;4825901;28;132966;-70
2022/05/11 15:48:40;;;;;;;;;;;;;;;;;;4825426;28;119279;-70
2022/05/11 15:51:08;;;;;;;;;;;;;;;;;;4825207;28;127918;-72
2022/05/11 15:53:36;;;;;;;;;;;;;;;;;;4826136;28;131163;-71
2022/05/11 15:56:02;;;;;;;;;;;;;;;;;;4827501;28;124242;-72
2022/05/11 15:58:28;;;;;;;;;;;;;;;;;;4825726;28;137272;-72
2022/05/11 16:00:55;;;;;;;;;;;;;;;;;;4825724;28;138268;-75
2022/05/11 16:03:21;;;;;;;;;;;;;;;;;;4833538;28;135820;-70
2022/05/11 16:05:49;;;;;;;;;;;;;;;;;;4827423;28;137548;-69
2022/05/11 16:08:15;;;;;;;;;;;;;;;;;;4817712;28;122406;-67
2022/05/11 16:10:42;;;;;;;;;;;;;;;;;;4829128;28;138269;-67
2022/05/11 16:13:08;;;;;;;;;;;;;;;;;;4825153;28;135809;-68
2022/05/11 16:15:34;;;;;;;;;;;;;;;;;;4827633;28;108205;-68
2022/05/11 16:20:46;;;;;;;;;;;;;;;;;;4817875;28;138856;-67
2022/05/11 16:23:12;;;;;;;;;;;;;;;;;;4825957;28;108871;-67
2022/05/11 16:25:38;;;;;;;;;;;;;;;;;;4824551;28;127330;-69
2022/05/11 16:28:04;;;;;;;;;;;;;;;;;;4826760;28;121376;-70
2022/05/11 16:30:33;;;;;;;;;;;;;;;;;;4824428;28;136333;-70
2022/05/11 16:33:00;;;;;;;;;;;;;;;;;;4830034;28;136604;-69
2022/05/11 16:35:26;;;;;;;;;;;;;;;;;;4843274;28;122687;-70
2022/05/11 16:37:53;;;;;;;;;;;;;;;;;;4828354;28;117621;-71
2022/05/11 16:40:19;;;;;;;;;;;;;;;;;;4821713;28;136792;-70
2022/05/11 16:42:45;;;;;;;;;;;;;;;;;;4826856;28;123679;-70
2022/05/11 16:45:12;;;;;;;;;;;;;;;;;;4828888;28;138709;-70
2022/05/11 16:47:38;;;;;;;;;;;;;;;;;;4827073;28;106835;-70
2022/05/11 16:50:08;;;;;;;;;;;;;;;;;;4820388;28;136123;-71
2022/05/11 16:52:34;;;;;;;;;;;;;;;;;;4826338;28;137216;-71
2022/05/11 16:55:01;;;;;;;;;;;;;;;;;;4829707;28;123152;-70
2022/05/11 16:57:27;;;;;;;;;;;;;;;;;;4852281;28;136822;-70
2022/05/11 16:59:53;;;;;;;;;;;;;;;;;;4827435;28;135819;-70
2022/05/11 17:02:20;;;;;;;;;;;;;;;;;;4824821;28;121931;-71
2022/05/11 17:04:46;;;;;;;;;;;;;;;;;;4829763;28;135869;-70
2022/05/11 17:07:12;;;;;;;;;;;;;;;;;;4845318;28;106350;-71
2022/05/11 17:09:39;;;;;;;;;;;;;;;;;;4826320;28;136587;-71
2022/05/11 17:12:05;;;;;;;;;;;;;;;;;;4824737;28;124201;-67
2022/05/11 17:14:31;;;;;;;;;;;;;;;;;;4821950;28;123382;-68
2022/05/11 17:16:57;;;;;;;;;;;;;;;;;;4828752;28;107515;-70
2022/05/11 17:19:24;;;;;;;;;;;;;;;;;;4857296;28;137535;-69
2022/05/11 17:21:50;;;;;;;;;;;;;;;;;;4825613;28;106649;-67